Portada
METAR-TAF:

METAR-TAF

Aeroports :

Shenyang, Xina

latitud: 41-48N, longitud: 123-24E, altitud: 35 m

Observació

L'informe es va fer fa 17 minuts, a les 18:30 UTC
Vent 4 kt del Sud/Sud-Oest
Temperatura 14°C
Humitat 88%
Pressió 1007 hPa
Visibilitat: 6000 m

METAR: ZYTX 261830Z 20002MPS 6000 NSC 14/12 Q1007 NOSIG

Hora: 02:47 (18:47 UTC)

Pronòstic

L'informe es va fer fa 3 hores i 45 minuts, a les 15:02 UTC
Pronòstic vàlid del 26 a les 18 UTC al 27 a les 18 UTC
Vent 8 kt del Sud/Sud-Oest
Visibilitat: 6000 m
Temporalment
l' 27 a les 04 UTC al 27 a les 09 UTC
Escasses núvols a una alçada de 2600 ft, Cumulonimbus.
Cel ennuvolat a una alçada de 3000 ft
tempesta, pluja

TAF: ZYTX 261502Z 2618/2718 20004MPS 6000 NSC TX20/2706Z TN12/2618Z TEMPO 2704/2709 -TSRA FEW026CB BKN030

Observacions i pronòstics meteorològics de més de 4000 aeroports (METAR i TAF).

Les estacions disponibles són els punts grocs i vermells al mapa.

Posi el ratolí al punt desitjat per veure el nom de l'estació.

Feu clic per veure les observacions i els pronòstics meteorològics.

Per canviar el mapa: feu clic els botons verds amb una creu de color negre per apropar; al botó verd amb un guió per allunyar la imatge; o en les fletxes verdes per a mapes adjacents.


METAR-TAF: